Andover, NH (03216)

12:19 PM EDT on August 30, 2016 (GMT -0400)
boston hill | | Change Station

Elev 804 ft 43.44 °N, 71.76 °W | Updated 4 minutes ago

Clear
Clear
75.4 °F
Feels Like 78 °F
N
3.0
Wind Variable Wind from SW
Gusts 4.0 mph

Today
High -- | Low -- °F
--% Chance of Precip.
Yesterday
High -- | Low -- °F
Precip. -- in
Pressure 30.19 in
Visibility 10.0 miles
Clouds Clear
Heat Index 78 °F
Dew Point 56 °F
Humidity 51%
Rainfall 0.00 in
Snow Depth Not available.
6:09 AM 7:24 PM
Waning Crescent, 3% visible
METAR KLCI 301556Z AUTO 23009KT 10SM CLR 23/12 A3014 RMK AO2 SLP221 T02330122
Pressure 30.19 in
Visibility 10.0 miles
Clouds Clear
Heat Index 78 °F
Dew Point 56 °F
Humidity 51%
Rainfall 0.00 in
Snow Depth Not available.
6:09 AM 7:24 PM
Waning Crescent, 3% visible
METAR KLCI 301556Z AUTO 23009KT 10SM CLR 23/12 A3014 RMK AO2 SLP221 T02330122

10-Day Weather Forecast

Almanac

Astronomy

Aug. 30, 2016 Rise Set
Actual Time
Civil Twilight
Nautical Twilight
Astronomical Twilight
Moon
Length of Visible Light
Length of Day
Tomorrow will be .
, % of the Moon is Illuminated

Today's Extremes

State Highs State Lows

Community

WunderPhotos

Upload Photos

1,935,861 photos uploaded!

WunderBlog® & News

Nearby

Air Quality

  Air Quality AQ Index Pollutant
Not available.

Snow Depth

Station Depth Elevation

Earthquake Activity

City Distance Mag. Time & Date
Minimum magnitude displayed is 2.5.

Coastal Water Temperatures

Place Temperature

Stations

Nearby Weather Stations

Station Location Temp. Windchill Dew Point Humidity Wind Precip. Elev Updated Type
                   

Watches & Warnings

There are currently no watches in effect.